Flight Track Log - Related Links

Times and Time Zones

All times are in EDT time to prevent confusion due to time zone crossing. See the SWA3937 flight status page for this flight to view local times or setup timezone preferences in your user account.

Time Position Orientation Groundspeed Altitude Reporting Facility
EDT Latitude Longitude Course Direction KTS MPH feet Rate Location/Type
Mon 02:31:31 PM 33.4167 -112.1000 253° West 217 250 4,200  Level Phoenix TRACON
Mon 02:32:06 PM 33.4031 -112.1444 250° West 217 250 5,800 2,660 Climbing Albuquerque Center
Mon 02:33:08 PM 33.3519 -112.1853 214° Southwest 260 299 8,500 2,390 Climbing Albuquerque Center
Mon 02:34:09 PM 33.3169 -112.1017 117° Southeast 323 372 10,700 2,195 Climbing Albuquerque Center
Mon 02:35:11 PM 33.3492 -111.9833 72° East 377 434 13,000 2,613 Climbing Albuquerque Center
Mon 02:36:13 PM 33.3811 -111.8556 73° East 401 461 16,100 3,000 Climbing Albuquerque Center
Mon 02:37:15 PM 33.4150 -111.7244 73° East 415 478 19,200 3,024 Climbing Albuquerque Center
Mon 02:38:16 PM 33.4569 -111.5594 73° East 433 498 22,300 2,634 Climbing Albuquerque Center
Mon 02:39:18 PM 33.4919 -111.4183 73° East 444 511 24,600 1,935 Climbing Albuquerque Center
Mon 02:40:20 PM 33.5142 -111.2681 80° East 464 534 26,300 1,694 Climbing Albuquerque Center
Mon 02:41:22 PM 33.5319 -111.1114 82° East 477 549 28,100 1,694 Climbing Albuquerque Center
Mon 02:42:24 PM 33.5497 -110.9500 82° East 491 565 29,800 1,415 Climbing Albuquerque Center
Mon 02:43:25 PM 33.5892 -110.7914 73° East 497 572 31,000 585 Climbing Albuquerque Center
Mon 02:44:27 PM 33.6492 -110.6056 69° East 500 575 31,000  Level Albuquerque Center
Mon 02:45:29 PM 33.6983 -110.4528 69° East 497 572 31,000 242 Level Albuquerque Center
Mon 02:46:31 PM 33.7439 -110.3081 69° East 496 571 31,500 1,113 Climbing Albuquerque Center
Mon 02:47:33 PM 33.7947 -110.1542 68° East 498 573 33,300 1,694 Climbing Albuquerque Center
Mon 02:48:35 PM 33.8531 -109.9700 69° East 497 572 35,000 1,355 Climbing Albuquerque Center
Mon 02:49:37 PM 33.9022 -109.8158 69° East 496 571 36,100 976 Climbing Albuquerque Center
Mon 02:50:38 PM 33.9344 -109.6547 76° East 502 578 37,000 439 Climbing Albuquerque Center
Mon 02:51:40 PM 33.9633 -109.4914 78° East 499 574 37,000 194 Level Albuquerque Center
Mon 02:52:42 PM 33.9889 -109.3278 79° East 500 575 37,400 629 Climbing Albuquerque Center
Mon 02:53:44 PM 34.0208 -109.1300 79° East 502 578 38,300 629 Climbing Albuquerque Center
Mon 02:54:46 PM 34.0486 -108.9625 79° East 507 583 38,700 339 Climbing Albuquerque Center
Mon 02:55:48 PM 34.0775 -108.7900 79° East 517 595 39,000 145 Climbing Albuquerque Center
Mon 02:56:50 PM 34.1047 -108.6189 79° East 521 600 39,000  Level Albuquerque Center
Mon 02:57:52 PM 34.1311 -108.4531 79° East 512 589 39,000 -537 Level Albuquerque Center
Mon 02:58:53 PM 34.1572 -108.2881 79° East 507 583 37,900 -976 Descending Albuquerque Center
Mon 02:59:55 PM 34.1869 -108.0861 80° East 509 586 37,000 -435 Descending Albuquerque Center
Mon 03:00:57 PM 34.2133 -107.9161 79° East 513 590 37,000  Level Albuquerque Center
Mon 03:01:59 PM 34.2400 -107.7481 79° East 511 588 37,000  Level Albuquerque Center
Mon 03:03:01 PM 34.2647 -107.5789 80° East 512 589 37,000  Level Albuquerque Center
Mon 03:04:03 PM 34.2897 -107.4131 80° East 507 583 37,000  Level Albuquerque Center
Mon 03:05:05 PM 34.3189 -107.2333 79° East 495 570 37,000  Level Albuquerque Center
Mon 03:06:07 PM 34.3436 -107.0681 80° East 499 574 37,000  Level Albuquerque Center
Mon 03:07:09 PM 34.3686 -106.9008 80° East 506 582 37,000  Level Albuquerque Center
Mon 03:08:11 PM 34.3917 -106.7314 81° East 511 588 37,000  Level Albuquerque Center
Mon 03:09:13 PM 34.4158 -106.5667 80° East 505 581 37,000  Level Albuquerque Center
Mon 03:10:15 PM 34.4433 -106.3686 80° East 502 578 37,000  Level Albuquerque Center
Mon 03:11:17 PM 34.4675 -106.1978 80° East 504 580 37,000  Level Albuquerque Center
Mon 03:12:19 PM 34.4900 -106.0303 81° East 500 575 37,000  Level Albuquerque Center
Mon 03:13:21 PM 34.5142 -105.8606 80° East 505 581 37,000  Level Albuquerque Center
Mon 03:14:23 PM 34.5367 -105.6925 81° East 504 580 37,000  Level Albuquerque Center
Mon 03:15:25 PM 34.5592 -105.5242 81° East 502 578 37,000  Level Albuquerque Center
Mon 03:16:26 PM 34.5861 -105.3267 81° East 505 581 37,000  Level Albuquerque Center
Mon 03:17:28 PM 34.6081 -105.1564 81° East 507 583 37,000  Level Albuquerque Center
Mon 03:18:30 PM 34.6306 -104.9869 81° East 507 583 37,000  Level Albuquerque Center
Mon 03:19:32 PM 34.6533 -104.8156 81° East 509 586 37,000  Level Albuquerque Center
Mon 03:20:34 PM 34.6750 -104.6456 81° East 508 585 37,000  Level Albuquerque Center
Mon 03:21:36 PM 34.6975 -104.4803 81° East 499 574 37,000  Level Albuquerque Center
Mon 03:22:38 PM 34.7197 -104.2872 82° East 495 570 37,000  Level Albuquerque Center
Mon 03:23:40 PM 34.7414 -104.1203 81° East 497 572 37,000  Level Albuquerque Center
Mon 03:24:42 PM 34.7619 -103.9519 81° East 502 578 37,000  Level Albuquerque Center
Mon 03:25:44 PM 34.7814 -103.7825 82° East 505 581 37,000  Level Albuquerque Center
Mon 03:26:46 PM 34.8025 -103.6125 81° East 506 582 37,000  Level Albuquerque Center
Mon 03:27:48 PM 34.8228 -103.4422 82° East 507 583 37,000  Level Albuquerque Center
Mon 03:28:50 PM 34.8456 -103.2453 82° East 503 579 37,000  Level Albuquerque Center
Mon 03:29:52 PM 34.8653 -103.0758 82° East 503 579 37,000  Level Albuquerque Center
Mon 03:30:54 PM 34.8831 -102.9067 83° East 502 578 37,000  Level Albuquerque Center
Mon 03:31:56 PM 34.9028 -102.7389 82° East 499 574 37,000  Level Albuquerque Center
Mon 03:32:58 PM 34.9219 -102.5631 82° East 497 572 37,000  Level Albuquerque Center
Mon 03:34:00 PM 34.9397 -102.3967 83° East 497 572 37,000  Level Albuquerque Center
Mon 03:35:02 PM 34.9564 -102.2314 83° East 495 570 37,000  Level Albuquerque Center
Mon 03:36:04 PM 34.9742 -102.0669 82° East 494 568 37,000  Level Albuquerque Center
Mon 03:37:06 PM 34.9956 -101.8733 82° East 494 568 37,000  Level Albuquerque Center
Mon 03:38:08 PM 35.0136 -101.7047 83° East 496 571 37,000  Level Albuquerque Center
Mon 03:39:10 PM 35.0297 -101.5253 84° East 502 578 37,000  Level Albuquerque Center
Mon 03:40:12 PM 35.0625 -101.3608 76° East 498 573 37,000  Level Albuquerque Center
Mon 03:41:14 PM 35.0964 -101.2153 74° East 500 575 37,000  Level Albuquerque Center
Mon 03:42:16 PM 35.1411 -101.0236 74° East 494 568 37,000  Level Albuquerque Center
Mon 03:43:18 PM 35.1789 -100.8625 74° East 495 570 37,000  Level Albuquerque Center
Mon 03:44:20 PM 35.2172 -100.7014 74° East 496 571 37,000  Level Albuquerque Center
Mon 03:45:22 PM 35.2517 -100.5481 75° East 496 571 37,000  Level Albuquerque Center
Mon 03:46:24 PM 35.2639 -100.3469 86° East 500 575 37,000  Level Albuquerque Center
Mon 03:47:26 PM 35.2578 -100.1786 92° East 497 572 37,000  Level Albuquerque Center
Mon 03:48:28 PM 35.2514 -100.0117 93° East 494 568 37,000  Level Albuquerque Center
Mon 03:49:30 PM 35.2450 -99.8444 93° East 493 567 37,000  Level Albuquerque Center
Mon 03:50:32 PM 35.2367 -99.6767 93° East 494 568 37,000  Level Albuquerque Center
Mon 03:51:34 PM 35.2294 -99.5117 93° East 490 564 37,000  Level Albuquerque Center
Mon 03:52:36 PM 35.2194 -99.3111 93° East 493 567 37,000  Level Albuquerque Center
Mon 03:53:03 PM 35.2156 -99.2356 94° East 487 560 37,000  Level Fort Worth Center
Mon 03:54:03 PM 35.2056 -99.0675 94° East 487 560 37,000  Level Fort Worth Center
Mon 03:55:03 PM 35.1992 -98.8997 93° East 493 567 37,000  Level Fort Worth Center
Mon 03:56:03 PM 35.1908 -98.7294 93° East 498 573 37,000  Level Fort Worth Center
Mon 03:57:03 PM 35.1819 -98.5617 94° East 498 573 37,000  Level Fort Worth Center
Mon 03:58:03 PM 35.1769 -98.4142 92° East 498 573 37,000  Level Fort Worth Center
Mon 03:59:03 PM 35.1636 -98.2439 95° East 498 573 37,000  Level Fort Worth Center
Mon 04:00:03 PM 35.1542 -98.0764 94° East 498 573 37,000  Level Fort Worth Center
Mon 04:01:03 PM 35.1444 -97.9086 94° East 498 573 37,000  Level Fort Worth Center
Mon 04:02:03 PM 35.1325 -97.7411 95° East 498 573 37,000  Level Fort Worth Center
Mon 04:03:03 PM 35.1225 -97.5708 94° East 498 573 37,000  Level Fort Worth Center
Mon 04:04:03 PM 35.1122 -97.4033 94° East 498 573 37,000  Level Fort Worth Center
Mon 04:05:03 PM 35.0994 -97.2156 95° East 498 573 37,000  Level Fort Worth Center
Mon 04:06:03 PM 35.0908 -97.0481 94° East 498 573 37,000  Level Fort Worth Center
Mon 04:07:03 PM 35.0797 -96.8808 95° East 498 573 37,000  Level Fort Worth Center
Mon 04:08:03 PM 35.0686 -96.7133 95° East 498 573 37,000 -300 Level Fort Worth Center
Mon 04:09:03 PM 35.0569 -96.5461 95° East 498 573 36,400 -800 Descending Fort Worth Center
Mon 04:10:03 PM 35.0453 -96.3814 95° East 498 573 35,400 -700 Descending Fort Worth Center
Mon 04:11:03 PM 35.0336 -96.2167 95° East 488 562 35,000 -200 Descending Fort Worth Center
Mon 04:12:03 PM 35.0236 -96.0572 94° East 483 556 35,000  Level Fort Worth Center
Mon 04:13:03 PM 35.0092 -95.8953 96° East 478 550 35,000  Level Fort Worth Center
Mon 04:15:18 PM 34.9886 -95.5556 94° East 461 531 35,000  Level Memphis Center
Mon 04:16:18 PM 34.9744 -95.3925 96° East 474 545 35,000  Level Memphis Center
Mon 04:17:18 PM 34.9600 -95.2319 96° East 479 551 35,000  Level Memphis Center
Mon 04:18:18 PM 34.9478 -95.0667 95° East 484 557 35,000  Level Memphis Center
Mon 04:19:18 PM 34.9347 -94.9064 96° East 484 557 35,000  Level Memphis Center
Mon 04:20:18 PM 34.9219 -94.7461 96° East 484 557 35,000  Level Memphis Center
Mon 04:21:18 PM 34.9067 -94.5808 96° East 484 557 35,000 -300 Level Memphis Center
Mon 04:22:18 PM 34.8911 -94.4206 97° East 484 557 34,400 -1,700 Descending Memphis Center
Mon 04:23:18 PM 34.8761 -94.2425 96° East 484 557 31,600 300 Descending Memphis Center
Mon 04:24:18 PM 34.8642 -94.0853 95° East 477 549 35,000 -2,400 Climbing Memphis Center
Mon 04:25:18 PM 34.8497 -93.9328 97° East 466 536 26,800 -5,300 Descending Memphis Center
Mon 04:26:18 PM 34.8353 -93.7803 97° East 461 531 24,400 -2,450 Descending Memphis Center
Mon 04:27:18 PM 34.8206 -93.6278 97° East 461 531 21,900 -2,450 Descending Memphis Center
Mon 04:28:18 PM 34.8078 -93.4781 96° East 456 525 19,500 -2,500 Descending Memphis Center
Mon 04:29:18 PM 34.7947 -93.3336 96° East 443 510 16,900 -2,550 Descending Memphis Center
Mon 04:30:18 PM 34.7792 -93.1939 98° East 429 494 14,400 -2,500 Descending Memphis Center
Mon 04:31:18 PM 34.7656 -93.0569 97° East 417 480 11,900 -2,447 Descending Memphis Center
Mon 04:31:34 PM 34.7600 -93.0214 101° East 404 465 11,300 -1,900 Descending Memphis Center
Mon 04:32:18 PM 34.7536 -92.9278 95° East 404 465 10,000 -1,500 Descending Memphis Center
Mon 04:32:34 PM 34.7500 -92.8972 98° East 381 438 9,800 -900 Descending Memphis Center
Mon 04:33:18 PM 34.7497 -92.8089 90° East 380 437 9,100 -1,082 Descending Memphis Center
Mon 04:33:35 PM 34.7503 -92.7761 89° East 332 382 8,700 -1,000 Descending Memphis Center
Mon 04:34:18 PM 34.7581 -92.7003 83° East 341 392 8,100 -885 Descending Memphis Center
Mon 04:34:36 PM 34.7564 -92.6750 95° East 306 352 7,800 -900 Descending Memphis Center
Mon 04:35:18 PM 34.7619 -92.5994 85° East 318 366 7,200 -900 Descending Memphis Center
Mon 04:35:36 PM 34.7625 -92.5717 89° East 291 335 6,900 -800 Descending Memphis Center
Mon 04:36:18 PM 34.7700 -92.5011 83° East 300 345 6,400 -885 Descending Memphis Center
Mon 04:36:37 PM 34.7661 -92.4756 100° East 291 335 6,000 -1,200 Descending Memphis Center
Mon 04:37:18 PM 34.7758 -92.4025 81° East 288 331 5,200 -1,377 Descending Memphis Center
Mon 04:37:38 PM 34.7742 -92.3747 94° East 289 333 4,600 -1,600 Descending Memphis Center
Mon 04:38:18 PM 34.7794 -92.3064 85° East 288 331 3,600 -1,500 Descending Memphis Center
Mon 04:38:38 PM 34.7778 -92.2811 95° East 287 330 3,100 -600 Descending Memphis Center
Mon 04:39:18 PM 34.7892 -92.2183 78° East 282 325 3,000 -197 Descending Memphis Center
Mon 04:39:39 PM 34.7914 -92.1956 83° East 224 258 2,900 -700 Descending Memphis Center
Mon 04:40:18 PM 34.8131 -92.1531 58° Northeast 228 262 2,300 -800 Descending Memphis Center
Mon 04:40:39 PM 34.8006 -92.1400 139° Southeast 175 201 2,100 -900 Descending Memphis Center
Mon 04:41:18 PM 34.7756 -92.1497 198° South 118 136 1,400 -984 Descending Memphis Center
Mon 04:41:40 PM 34.7628 -92.1619 218° Southwest 133 153 1,100 -300 Descending Memphis Center
Mon 04:42:18 PM 34.7567 -92.1544 135° Southeast 73 84 1,100 -689 Level Memphis Center
Mon 04:42:41 PM 34.7372 -92.1969 241° Southwest 133 153 400 -1,826 Descending Memphis Center

Login

Don't have an account? Register now (free) for customized features, flight alerts, and more!